Nathaniel B. Palmer — WBP3210 — position and weather

sailwx.info

Track history (hours):
 
Tides and Currents Weather Stations Pressure Air Temp Water Temp Dewpoint Dewpoint Depression Visibility Wind Speed Wind Dir Waves Ship Positions

Oceanographic research ship Nathaniel B. Palmer (USA)

Contact: Ethan Norris, ethan.norris.contractor@usap.gov

Detailed information on ship capabilities available from University of Delaware's Ocean Information Center and ARCUS's ALIAS (Arctic Logistics Information and Support) project.

Owner: OFFSHORE SERVICE VESSELS, Cut Off, LA. More information available from US FCC via Universal Licensing System and Coast Guard Vessel Documentation Center.

Last reported at 2020-Sep-20 00:00 UTC. Time now 2020-Sep-20 01:22 UTC.
Position N 40°42' W 124°18'.

Type: Other ship. MMSI: 366610000.

Wind from 350 at 13 knots

Barometer 1018.0 mb
Air temperature 16.5 ° C
Water temperature -0.0 ° C

Date/timePositionNaut miles runAvg speedWind from/ knotsBaromVisibWave heightAir tempDewpointWater temp
2020-Sep-20 00:00N 40°42' W 124°18'5 4.5 350 / 131018.0 16.5 -0.0
2020-Sep-19 23:00N 40°42' W 124°12'5 4.5 340 / 91018.3 17.4 -0.0
2020-Sep-19 22:00N 40°42' W 124°06'0 0.0 340 / 101018.7 17.4 -0.0
2020-Sep-19 21:00N 40°42' W 124°06'0 0.0 340 / 81019.2 16.8 -0.0
2020-Sep-19 20:00N 40°42' W 124°06'0 0.0 320 / 61019.4 17.1 -0.0
2020-Sep-19 19:00N 40°42' W 124°06'0 0.0 360 / 61019.4 17.0 -0.0
2020-Sep-19 18:00N 40°42' W 124°06'0 0.0 020 / 51019.5 16.7 -0.0
2020-Sep-19 17:00N 40°42' W 124°06'0 0.0 020 / 31019.4 16.3 -0.0
2020-Sep-19 16:00N 40°42' W 124°06'0 0.0 300 / 11019.1 16.0 -0.0
2020-Sep-19 15:00N 40°42' W 124°06'0 0.0 170 / 31018.6 15.1 -0.0
2020-Sep-19 14:00N 40°42' W 124°06'0 0.0 080 / 21018.1 15.5 -0.0
2020-Sep-19 13:00N 40°42' W 124°06'0 0.0 130 / 11017.9 15.1 -0.0
2020-Sep-19 12:00N 40°42' W 124°06'0 0.0 170 / 31017.8 14.8 -0.0
2020-Sep-19 11:00N 40°42' W 124°06'0 0.0 250 / 31017.6 14.5 -0.0
2020-Sep-19 10:00N 40°42' W 124°06'0 0.0 160 / 21017.4 14.7 -0.0
2020-Sep-19 09:00N 40°42' W 124°06'0 0.0 150 / 21017.3 15.0 -0.0
2020-Sep-19 08:00N 40°42' W 124°06'0 0.0 150 / 21017.4 15.5 -0.0
2020-Sep-19 07:00N 40°42' W 124°06'0 0.0 090 / 11017.4 16.9 -0.0
2020-Sep-19 06:00N 40°42' W 124°06'0 0.0 040 / 31017.0 18.1 -0.0
2020-Sep-19 05:00N 40°42' W 124°06'0 0.0 100 / 21017.0 17.7 -0.0
2020-Sep-19 04:00N 40°42' W 124°06'0 0.0 210 / 41016.6 17.5 -0.0
2020-Sep-19 03:00N 40°42' W 124°06'0 0.0 230 / 111015.9 17.7 -0.0
2020-Sep-19 02:00N 40°42' W 124°06'0 0.0 240 / 131015.3 18.4 -0.0
2020-Sep-19 01:00N 40°42' W 124°06'0 0.0 240 / 161015.0 18.9 -0.0
2020-Sep-19 00:00N 40°42' W 124°06'0 0.0 240 / 171014.8 19.3 -0.0
2020-Sep-18 23:00N 40°42' W 124°06'0 0.0 240 / 181014.8 19.7 -0.0
2020-Sep-18 22:00N 40°42' W 124°06'0 0.0 240 / 171014.9 20.0 -0.0
2020-Sep-18 21:00N 40°42' W 124°06'0 0.0 230 / 151015.0 19.4 -0.0
2020-Sep-18 20:00N 40°42' W 124°06'0 0.0 240 / 101015.0 19.9 -0.0
2020-Sep-18 19:00N 40°42' W 124°06'0 0.0 190 / 51015.2 20.3 -0.0
2020-Sep-18 18:00N 40°42' W 124°06'0 0.0 110 / 11015.5 18.3 -0.0
2020-Sep-18 17:00N 40°42' W 124°06'0 0.0 080 / 31015.3 17.2 -0.0
2020-Sep-18 16:00N 40°42' W 124°06'0 0.0 180 / 31015.3 15.9 -0.0
2020-Sep-18 15:00N 40°42' W 124°06'0 0.0 230 / 31015.0 15.5 -0.0
2020-Sep-18 14:00N 40°42' W 124°06'0 0.0 230 / 41014.4 15.5 -0.0
2020-Sep-18 13:00N 40°42' W 124°06'0 0.0 130 / 31013.8 16.1 -0.0
2020-Sep-18 12:00N 40°42' W 124°06'0 0.0 130 / 21013.9 16.1 -0.0
2020-Sep-18 11:00N 40°42' W 124°06'0 0.0 150 / 11014.3 15.3 -0.0
2020-Sep-18 10:00N 40°42' W 124°06'0 0.0 100 / 11014.3 15.7 -0.0
2020-Sep-18 09:00N 40°42' W 124°06'0 0.0 200 / 31014.4 15.8 -0.0
2020-Sep-18 08:00N 40°42' W 124°06'0 0.0 200 / 41014.5 16.7 -0.0
2020-Sep-18 07:00N 40°42' W 124°06'0 0.0 130 / 21014.5 17.6 -0.0
2020-Sep-18 06:00N 40°42' W 124°06'0 0.0 260 / 11014.9 17.7 -0.0
2020-Sep-18 05:00N 40°42' W 124°06'0 0.0 320 / 11015.1 18.3 -0.0
2020-Sep-18 04:00N 40°42' W 124°06'0 0.0 200 / 21015.0 18.5 -0.0
2020-Sep-18 03:00N 40°42' W 124°06'0 0.0 180 / 11014.8 18.6 -0.0
2020-Sep-18 02:00N 40°42' W 124°06'0 0.0 210 / 21014.8 18.8 -0.0
2020-Sep-18 01:00N 40°42' W 124°06'0 0.0 290 / 21014.7 19.4 -0.0
2020-Sep-18 00:00N 40°42' W 124°06'0 0.0 090 / 11014.9 20.2 -0.0
2020-Sep-17 23:00N 40°42' W 124°06'0 0.0 160 / 21015.3 18.9 -0.0
2020-Sep-17 22:00N 40°42' W 124°06'0 0.0 220 / 41015.5 16.9 -0.0
2020-Sep-17 21:00N 40°42' W 124°06'0 0.0 210 / 81015.5 15.5 -0.0
2020-Sep-17 20:00N 40°42' W 124°06'0 0.0 250 / 51015.3 17.2 -0.0
2020-Sep-17 19:00N 40°42' W 124°06'0 0.0 340 / 21015.3 16.5 -0.0
2020-Sep-17 18:00N 40°42' W 124°06'0 0.0 360 / 31015.5 15.8 -0.0
2020-Sep-17 17:00N 40°42' W 124°06'0 0.0 350 / 31015.6 15.7 -0.0
2020-Sep-17 16:00N 40°42' W 124°06'0 0.0 350 / 21015.8 15.6 -0.0
2020-Sep-17 15:00N 40°42' W 124°06'0 0.0 310 / 21015.7 15.7 -0.0
2020-Sep-17 14:00N 40°42' W 124°06'0 0.0 080 / 31015.5 16.0 -0.0
2020-Sep-17 13:00N 40°42' W 124°06'0 0.0 350 / 31015.8 15.5 -0.0
2020-Sep-17 10:00N 40°42' W 124°06'0 0.0 340 / 11016.7 15.6 -0.0
2020-Sep-17 09:00N 40°42' W 124°06'0 0.0 310 / 11016.8 15.9 -0.0
2020-Sep-17 08:00N 40°42' W 124°06'0 0.0 280 / 11016.8 16.1 -0.0
2020-Sep-17 07:00N 40°42' W 124°06'0 0.0 260 / 21016.9 16.1 -0.0
2020-Sep-17 06:00N 40°42' W 124°06'0 0.0 250 / 41017.0 16.4 -0.0
2020-Sep-17 05:00N 40°42' W 124°06'0 0.0 230 / 31017.2 16.7 -0.0
2020-Sep-17 04:00N 40°42' W 124°06'0 0.0 250 / 31017.1 17.2 -0.0
2020-Sep-17 03:00N 40°42' W 124°06'0 0.0 250 / 11017.1 18.2 -0.0
2020-Sep-17 02:00N 40°42' W 124°06'0 0.0 300 / 11017.3 18.4 -0.0
2020-Sep-17 01:00N 40°42' W 124°06'0 0.0 040 / 11017.6 18.4 -0.0
2020-Sep-17 00:00N 40°42' W 124°06'0 0.0 280 / 21017.8 18.4 -0.0
2020-Sep-16 23:00N 40°42' W 124°06'0 0.0 260 / 51017.9 19.5 -0.0
2020-Sep-16 22:00N 40°42' W 124°06'0 0.0 220 / 61017.8 19.4 -0.0
2020-Sep-16 21:00N 40°42' W 124°06'0 0.0 250 / 51018.1 18.6 -0.0
2020-Sep-16 20:00N 40°42' W 124°06'0 0.0 230 / 71018.1 19.0 -0.0
2020-Sep-16 19:00N 40°42' W 124°06'0 0.0 290 / 51018.1 19.7 -0.0
2020-Sep-16 18:00N 40°42' W 124°06'0 0.0 330 / 61018.0 19.0 -0.0
2020-Sep-16 17:00N 40°42' W 124°06'0 0.0 040 / 41017.8 18.4 -0.0
2020-Sep-16 16:00N 40°42' W 124°06'0 0.0 190 / 11017.7 18.0 -0.0
2020-Sep-16 15:00N 40°42' W 124°06'0 0.0 210 / 41017.5 17.2 -0.0
2020-Sep-16 14:00N 40°42' W 124°06'0 0.0 180 / 41017.2 17.4 -0.0
2020-Sep-16 13:00N 40°42' W 124°06'0 0.0 120 / 31017.1 17.7 -0.0
2020-Sep-16 12:00N 40°42' W 124°06'0 0.0 090 / 21017.3 17.4 -0.0
2020-Sep-16 11:00N 40°42' W 124°06'0 0.0 170 / 21017.4 16.9 -0.0
2020-Sep-16 10:00N 40°42' W 124°06'0 0.0 180 / 41017.5 17.2 -0.0
2020-Sep-16 09:00N 40°42' W 124°06'0 0.0 190 / 51017.5 17.4 -0.0
2020-Sep-16 08:00N 40°42' W 124°06'0 0.0 180 / 41017.5 18.4 -0.0
2020-Sep-16 07:00N 40°42' W 124°06'0 0.0 160 / 31017.6 18.3 -0.0
2020-Sep-16 06:00N 40°42' W 124°06'0 0.0 100 / 11017.6 19.0 -0.0
2020-Sep-16 05:00N 40°42' W 124°06'0 0.0 040 / 51017.6 19.9 -0.0
2020-Sep-16 04:00N 40°42' W 124°06'0 0.0 050 / 51017.3 19.8 -0.0
2020-Sep-16 03:00N 40°42' W 124°06'0 0.0 090 / 21017.5 19.5 -0.0
2020-Sep-16 02:00N 40°42' W 124°06'0 0.0 210 / 11017.8 19.1 -0.0
2020-Sep-16 01:00N 40°42' W 124°06'0 0.0 250 / 41017.8 18.9 -0.0
2020-Sep-16 00:00N 40°42' W 124°06'0 0.0 260 / 51017.7 19.7 -0.0
2020-Sep-15 23:00N 40°42' W 124°06'0 0.0 220 / 61017.9 19.8 -0.0
2020-Sep-15 22:00N 40°42' W 124°06'0 0.0 230 / 71018.2 19.7 -0.0
2020-Sep-15 21:00N 40°42' W 124°06'0 0.0 230 / 81018.4 19.4 -0.0
2020-Sep-15 20:00N 40°42' W 124°06'0 0.0 250 / 81018.4 19.3 -0.0
2020-Sep-15 19:00N 40°42' W 124°06'0 0.0 310 / 31018.4 19.3 -0.0
2020-Sep-15 18:00N 40°42' W 124°06'0 0.0 310 / 21018.3 17.9 -0.0
2020-Sep-15 17:00N 40°42' W 124°06'0 0.0 230 / 11018.1 16.4 -0.0
2020-Sep-15 16:00N 40°42' W 124°06'0 0.0 120 / 11018.0 14.7 -0.0
2020-Sep-15 15:00N 40°42' W 124°06'0 0.0 140 / 21018.1 13.4 -0.0
2020-Sep-15 14:00N 40°42' W 124°06'0 0.0 190 / 11017.9 13.2 -0.0
2020-Sep-15 13:00N 40°42' W 124°06'0 0.0 170 / 11017.8 13.7 -0.0
2020-Sep-15 12:00N 40°42' W 124°06'0 0.0 140 / 11017.9 13.7 -0.0
2020-Sep-15 11:00N 40°42' W 124°06'0 0.0 150 / 11018.0 13.9 -0.0
2020-Sep-15 10:00N 40°42' W 124°06'0 0.0 130 / 11018.1 14.3 -0.0
2020-Sep-15 09:00N 40°42' W 124°06'0 0.0 150 / 41017.9 14.7 -0.0
2020-Sep-15 08:00N 40°42' W 124°06'0 0.0 150 / 41017.7 14.9 -0.0
2020-Sep-15 07:00N 40°42' W 124°06'0 0.0 140 / 41017.6 15.3 -0.0
2020-Sep-15 06:00N 40°42' W 124°06'0 0.0 130 / 41017.4 15.8 -0.0
2020-Sep-15 05:00N 40°42' W 124°06'0 0.0 110 / 41017.2 16.1 -0.0
2020-Sep-15 04:00N 40°42' W 124°06'0 0.0 160 / 21016.6 16.9 -0.0
2020-Sep-15 03:00N 40°42' W 124°06'0 0.0 230 / 21016.3 18.1 -0.0
2020-Sep-15 02:00N 40°42' W 124°06'0 0.0 190 / 21016.2 19.2 -0.0
2020-Sep-15 01:00N 40°42' W 124°06'0 0.0 190 / 41016.2 19.5 -0.0
2020-Sep-15 00:00N 40°42' W 124°06'0 0.0 180 / 31016.4 19.6 -0.0
2020-Sep-14 23:00N 40°42' W 124°06'0 0.0 190 / 61016.8 17.6 -0.0
2020-Sep-14 22:00N 40°42' W 124°06'0 0.0 220 / 81017.1 16.6 -0.0
2020-Sep-14 21:00N 40°42' W 124°06'0 0.0 270 / 41016.9 16.5 -0.0
2020-Sep-14 20:00N 40°42' W 124°06'0 0.0 020 / 51016.8 14.7 -0.0
2020-Sep-14 19:00N 40°42' W 124°06'0 0.0 160 / 11016.9 14.8 -0.0
2020-Sep-14 18:00N 40°42' W 124°06'0 0.0 200 / 31016.8 13.4 -0.0
2020-Sep-14 17:00N 40°42' W 124°06'0 0.0 240 / 31016.5 12.8 -0.0
2020-Sep-14 16:00N 40°42' W 124°06'0 0.0 240 / 31016.3 12.5 -0.0
2020-Sep-14 15:00N 40°42' W 124°06'0 0.0 230 / 41016.0 12.2 -0.0
2020-Sep-14 14:00N 40°42' W 124°06'0 0.0 240 / 51015.6 12.2 -0.0
2020-Sep-14 13:00N 40°42' W 124°06'0 0.0 240 / 31015.4 12.4 -0.0
2020-Sep-14 12:00N 40°42' W 124°06'0 0.0 260 / 11015.4 12.6 -0.0
2020-Sep-14 11:00N 40°42' W 124°06'0 0.0 280 / 11015.2 12.5 -0.0
2020-Sep-14 10:00N 40°42' W 124°06'0 0.0 310 / 21015.1 12.6 -0.0
2020-Sep-14 09:00N 40°42' W 124°06'0 0.0 330 / 41015.3 12.6 -0.0
2020-Sep-14 08:00N 40°42' W 124°06'0 0.0 350 / 31015.2 12.9 -0.0
2020-Sep-14 07:00N 40°42' W 124°06'0 0.0 350 / 31015.3 13.3 -0.0
2020-Sep-14 06:00N 40°42' W 124°06'0 0.0 330 / 21015.1 13.4 -0.0
2020-Sep-14 05:00N 40°42' W 124°06'0 0.0 340 / 21015.1 13.3 -0.0
2020-Sep-14 04:00N 40°42' W 124°06'0 0.0 020 / 21014.8 14.1 -0.0
2020-Sep-14 03:00N 40°42' W 124°06'0 0.0 020 / 21014.6 14.0 -0.0
2020-Sep-14 02:00N 40°42' W 124°06'0 0.0 320 / 11014.6 13.9 -0.0
2020-Sep-14 01:00N 40°42' W 124°06'0 0.0 230 / 11014.7 13.9 -0.0
2020-Sep-14 00:00N 40°42' W 124°06'0 0.0 300 / 31014.7 14.1 -0.0
2020-Sep-13 23:00N 40°42' W 124°06'0 0.0 300 / 51014.5 14.3 -0.0
2020-Sep-13 22:00N 40°42' W 124°06'0 0.0 280 / 41014.4 14.3 -0.0
2020-Sep-13 21:00N 40°42' W 124°06'0 0.0 230 / 31015.0 13.6 -0.0
2020-Sep-13 20:00N 40°42' W 124°06'0 0.0 150 / 21014.8 13.1 -0.0
2020-Sep-13 19:00N 40°42' W 124°06'0 0.0 130 / 21015.0 12.2 -0.0
2020-Sep-13 18:00N 40°42' W 124°06'0 0.0 200 / 31014.8 11.4 -0.0
2020-Sep-13 17:00N 40°42' W 124°06'0 0.0 210 / 21014.0 11.2 -0.0
2020-Sep-13 16:00N 40°42' W 124°06'0 0.0 130 / 21013.9 11.0 -0.0
2020-Sep-13 15:00N 40°42' W 124°06'0 0.0 140 / 31014.0 10.5 -0.0
2020-Sep-13 14:00N 40°42' W 124°06'0 0.0 150 / 31013.6 10.3 -0.0
2020-Sep-13 13:00N 40°42' W 124°06'0 0.0 170 / 31013.4 10.3 -0.0
2020-Sep-13 12:00N 40°42' W 124°06'0 0.0 260 / 21013.3 10.3 -0.0
2020-Sep-13 11:00N 40°42' W 124°06'0 0.0 230 / 11013.4 10.5 -0.0
2020-Sep-13 10:00N 40°42' W 124°06'0 0.0 130 / 11013.4 10.6 -0.0
2020-Sep-13 09:00N 40°42' W 124°06'0 0.0 1013.8 10.5 -0.0
2020-Sep-13 08:00N 40°42' W 124°06'0 0.0 120 / 21013.7 10.5 -0.0
2020-Sep-13 07:00N 40°42' W 124°06'0 0.0 210 / 21013.8 10.4 -0.0
2020-Sep-13 06:00N 40°42' W 124°06'0 0.0 250 / 21013.9 10.5 -0.0
2020-Sep-13 05:00N 40°42' W 124°06'0 0.0 330 / 21014.3 10.6 -0.0
2020-Sep-13 04:00N 40°42' W 124°06'0 0.0 1014.2 10.9 -0.0
2020-Sep-13 03:00N 40°42' W 124°06'0 0.0 030 / 41014.0 11.2 -0.0
2020-Sep-13 02:00N 40°42' W 124°06'0 0.0 020 / 51014.3 11.4 -0.0
2020-Sep-13 01:00N 40°42' W 124°06'0 0.0 1014.6 11.4 -0.0
2020-Sep-13 00:00N 40°42' W 124°06'0 0.0 010 / 51014.9 11.4 -0.0
2020-Sep-12 23:00N 40°42' W 124°06'0 0.0 020 / 51015.0 11.4 -0.0
2020-Sep-12 22:00N 40°42' W 124°06'0 0.0 350 / 51015.3 11.3 -0.0
2020-Sep-12 21:00N 40°42' W 124°06'0 0.0 350 / 41015.4 11.4 -0.0
2020-Sep-12 20:00N 40°42' W 124°06'0 0.0 020 / 31015.7 11.4 -0.0
2020-Sep-12 19:00N 40°42' W 124°06'0 0.0 010 / 41016.1 11.1 -0.0
2020-Sep-12 18:00N 40°42' W 124°06'0 0.0 340 / 41016.4 11.0 -0.0
2020-Sep-12 17:00N 40°42' W 124°06'0 0.0 360 / 31016.6 11.0 -0.0
2020-Sep-12 16:00N 40°42' W 124°06'0 0.0 310 / 21016.5 10.8 -0.0
2020-Sep-12 15:00N 40°42' W 124°06'0 0.0 180 / 11016.4 10.7 -0.0
2020-Sep-12 14:00N 40°42' W 124°06'0 0.0 300 / 21016.3 10.6 -0.0
2020-Sep-12 13:00N 40°42' W 124°06'0 0.0 320 / 31016.2 10.6 -0.0
2020-Sep-12 12:00N 40°42' W 124°06'0 0.0 340 / 21016.2 11.4 -0.0
2020-Sep-12 11:00N 40°42' W 124°06'0 0.0 050 / 21016.5 11.6 -0.0
2020-Sep-12 10:00N 40°42' W 124°06'0 0.0 120 / 21016.7 11.1 -0.0
2020-Sep-12 09:00N 40°42' W 124°06'0 0.0 240 / 31016.6 10.7 -0.0
2020-Sep-12 08:00N 40°42' W 124°06'0 0.0 290 / 21016.6 11.3 -0.0
2020-Sep-12 07:00N 40°42' W 124°06'0 0.0 350 / 21016.9 11.7 -0.0
2020-Sep-12 06:00N 40°42' W 124°06'0 0.0 020 / 21017.0 12.1 -0.0
2020-Sep-12 05:00N 40°42' W 124°06'0 0.0 030 / 31017.4 12.0 -0.0
2020-Sep-12 04:00N 40°42' W 124°06'0 0.0 030 / 31017.3 11.8 -0.0
2020-Sep-12 03:00N 40°42' W 124°06'0 0.0 320 / 21017.1 12.0 -0.0
2020-Sep-12 02:00N 40°42' W 124°06'0 0.0 250 / 21017.1 13.1 -0.0
2020-Sep-12 01:00N 40°42' W 124°06'0 0.0 270 / 21017.3 14.6 -0.0
2020-Sep-12 00:00N 40°42' W 124°06'0 0.0 290 / 31017.6 14.7 -0.0
2020-Sep-11 23:00N 40°42' W 124°06'0 0.0 290 / 21017.7 16.0 -0.0
2020-Sep-11 22:00N 40°42' W 124°06'0 0.0 290 / 31017.9 16.2 -0.0
2020-Sep-11 21:00N 40°42' W 124°06'0 0.0 310 / 31018.0 16.6 -0.0
2020-Sep-11 20:00N 40°42' W 124°06'0 0.0 340 / 31018.3 17.0 -0.0
2020-Sep-11 19:00N 40°42' W 124°06'0 0.0 360 / 21018.6 17.0 -0.0
2020-Sep-11 18:00N 40°42' W 124°06'0 0.0 060 / 11018.7 15.6 -0.0
2020-Sep-11 17:00N 40°42' W 124°06'0 0.0 140 / 21018.7 13.7 -0.0
2020-Sep-11 16:00N 40°42' W 124°06'0 0.0 160 / 31018.7 11.9 -0.0
2020-Sep-11 15:00N 40°42' W 124°06'0 0.0 160 / 21018.6 11.6 -0.0
2020-Sep-11 14:00N 40°42' W 124°06'0 0.0 140 / 11018.3 12.0 -0.0
2020-Sep-11 13:00N 40°42' W 124°06'0 0.0 130 / 11018.0 12.3 -0.0
2020-Sep-11 12:00N 40°42' W 124°06'0 0.0 120 / 11017.9 12.5 -0.0
2020-Sep-11 11:00N 40°42' W 124°06'0 0.0 100 / 11018.1 12.9 -0.0
2020-Sep-11 10:00N 40°42' W 124°06'0 0.0 020 / 11018.1 13.1 -0.0
2020-Sep-11 09:00N 40°42' W 124°06'0 0.0 160 / 11017.9 13.3 -0.0
2020-Sep-11 08:00N 40°42' W 124°06'0 0.0 130 / 21017.7 13.2 -0.0
2020-Sep-11 07:00N 40°42' W 124°06'0 0.0 190 / 21017.6 13.4 -0.0
2020-Sep-11 06:00N 40°42' W 124°06'0 0.0 160 / 21017.5 13.8 -0.0
2020-Sep-11 05:00N 40°42' W 124°06'0 0.0 170 / 31017.5 14.2 -0.0
2020-Sep-11 04:00N 40°42' W 124°06'0 0.0 170 / 21017.3 14.8 -0.0
2020-Sep-11 03:00N 40°42' W 124°06'0 0.0 060 / 21016.9 15.3 -0.0
2020-Sep-11 02:00N 40°42' W 124°06'0 0.0 1016.6 15.5 -0.0
2020-Sep-11 01:00N 40°42' W 124°06'0 0.0 020 / 41016.4 16.3 -0.0
2020-Sep-11 00:00N 40°42' W 124°06'0 0.0 040 / 61016.6 15.7 -0.0
2020-Sep-10 23:00N 40°42' W 124°06'0 0.0 030 / 51016.8 15.2 -0.0
2020-Sep-10 22:00N 40°42' W 124°06'0 0.0 020 / 51016.9 14.9 -0.0
2020-Sep-10 21:00N 40°42' W 124°06'0 0.0 030 / 51016.9 14.4 -0.0
2020-Sep-10 20:00N 40°42' W 124°06'0 0.0 030 / 31017.0 13.2 -0.0
2020-Sep-10 19:00N 40°42' W 124°06'0 0.0 060 / 11017.0 12.5 -0.0
2020-Sep-10 18:00N 40°42' W 124°06'0 0.0 080 / 31016.9 12.0 -0.0
2020-Sep-10 17:00N 40°42' W 124°06'0 0.0 080 / 41016.6 12.1 -0.0
2020-Sep-10 16:00N 40°42' W 124°06'0 0.0 010 / 41016.1 11.7 -0.0
2020-Sep-10 15:00N 40°42' W 124°06'0 0.0 350 / 31015.7 11.5 -0.0
2020-Sep-10 14:00N 40°42' W 124°06'0 0.0 350 / 41015.0 11.5 -0.0
2020-Sep-10 13:00N 40°42' W 124°06'0 0.0 350 / 41014.3 11.5 -0.0
2020-Sep-10 12:00N 40°42' W 124°06'0 0.0 1013.9 11.6 -0.0
2020-Sep-10 11:00N 40°42' W 124°06'0 0.0 350 / 31013.7 11.6 -0.0
2020-Sep-10 10:00N 40°42' W 124°06'0 0.0 350 / 31013.4 11.7 -0.0
2020-Sep-10 09:00N 40°42' W 124°06'0 0.0 310 / 21013.2 11.8 -0.0
2020-Sep-10 08:00N 40°42' W 124°06'0 0.0 270 / 21012.9 11.9 -0.0
2020-Sep-10 07:00N 40°42' W 124°06'0 0.0 290 / 21012.6 11.9 -0.0
2020-Sep-10 06:00N 40°42' W 124°06'0 0.0 330 / 21012.5 12.1 -0.0
2020-Sep-10 05:00N 40°42' W 124°06'0 0.0 340 / 41012.2 12.1 -0.0
2020-Sep-10 04:00N 40°42' W 124°06'0 0.0 320 / 41011.6 12.2 -0.0
2020-Sep-10 03:00N 40°42' W 124°06'0 0.0 330 / 41010.8 12.2 -0.0
2020-Sep-10 02:00N 40°42' W 124°06'0 0.0 350 / 41010.5 12.3 -0.0
2020-Sep-10 01:00N 40°42' W 124°06'0 0.0 030 / 71010.1 13.0 -0.0
2020-Sep-10 00:00N 40°42' W 124°06'   040 / 91009.9 13.6 -0.0
Track history (hours):
 
Tides and Currents Weather Stations Pressure Air Temp Water Temp Dewpoint Dewpoint Depression Visibility Wind Speed Wind Dir Waves Ship Positions

Oceanographic research ship Nathaniel B. Palmer (USA)

Contact: Ethan Norris, ethan.norris.contractor@usap.gov

Detailed information on ship capabilities available from University of Delaware's Ocean Information Center and ARCUS's ALIAS (Arctic Logistics Information and Support) project.

Owner: OFFSHORE SERVICE VESSELS, Cut Off, LA. More information available from US FCC via Universal Licensing System and Coast Guard Vessel Documentation Center.

Last reported at 2020-Sep-20 00:00 UTC. Time now 2020-Sep-20 01:22 UTC.
Position N 40°42' W 124°18'.

Type: Other ship. MMSI: 366610000.

Wind from 350 at 13 knots

Barometer 1018.0 mb
Air temperature 16.5 ° C
Water temperature -0.0 ° C

Date/timePositionNaut miles runAvg speedWind from/ knotsBaromVisibWave heightAir tempDewpointWater temp
2020-Sep-20 00:00N 40°42' W 124°18'5 4.5 350 / 131018.0 16.5 -0.0
2020-Sep-19 23:00N 40°42' W 124°12'5 4.5 340 / 91018.3 17.4 -0.0
2020-Sep-19 22:00N 40°42' W 124°06'0 0.0 340 / 101018.7 17.4 -0.0
2020-Sep-19 21:00N 40°42' W 124°06'0 0.0 340 / 81019.2 16.8 -0.0
2020-Sep-19 20:00N 40°42' W 124°06'0 0.0 320 / 61019.4 17.1 -0.0
2020-Sep-19 19:00N 40°42' W 124°06'0 0.0 360 / 61019.4 17.0 -0.0
2020-Sep-19 18:00N 40°42' W 124°06'0 0.0 020 / 51019.5 16.7 -0.0
2020-Sep-19 17:00N 40°42' W 124°06'0 0.0 020 / 31019.4 16.3 -0.0
2020-Sep-19 16:00N 40°42' W 124°06'0 0.0 300 / 11019.1 16.0 -0.0
2020-Sep-19 15:00N 40°42' W 124°06'0 0.0 170 / 31018.6 15.1 -0.0
2020-Sep-19 14:00N 40°42' W 124°06'0 0.0 080 / 21018.1 15.5 -0.0
2020-Sep-19 13:00N 40°42' W 124°06'0 0.0 130 / 11017.9 15.1 -0.0
2020-Sep-19 12:00N 40°42' W 124°06'0 0.0 170 / 31017.8 14.8 -0.0
2020-Sep-19 11:00N 40°42' W 124°06'0 0.0 250 / 31017.6 14.5 -0.0
2020-Sep-19 10:00N 40°42' W 124°06'0 0.0 160 / 21017.4 14.7 -0.0
2020-Sep-19 09:00N 40°42' W 124°06'0 0.0 150 / 21017.3 15.0 -0.0
2020-Sep-19 08:00N 40°42' W 124°06'0 0.0 150 / 21017.4 15.5 -0.0
2020-Sep-19 07:00N 40°42' W 124°06'0 0.0 090 / 11017.4 16.9 -0.0
2020-Sep-19 06:00N 40°42' W 124°06'0 0.0 040 / 31017.0 18.1 -0.0
2020-Sep-19 05:00N 40°42' W 124°06'0 0.0 100 / 21017.0 17.7 -0.0
2020-Sep-19 04:00N 40°42' W 124°06'0 0.0 210 / 41016.6 17.5 -0.0
2020-Sep-19 03:00N 40°42' W 124°06'0 0.0 230 / 111015.9 17.7 -0.0
2020-Sep-19 02:00N 40°42' W 124°06'0 0.0 240 / 131015.3 18.4 -0.0
2020-Sep-19 01:00N 40°42' W 124°06'0 0.0 240 / 161015.0 18.9 -0.0
2020-Sep-19 00:00N 40°42' W 124°06'0 0.0 240 / 171014.8 19.3 -0.0
2020-Sep-18 23:00N 40°42' W 124°06'0 0.0 240 / 181014.8 19.7 -0.0
2020-Sep-18 22:00N 40°42' W 124°06'0 0.0 240 / 171014.9 20.0 -0.0
2020-Sep-18 21:00N 40°42' W 124°06'0 0.0 230 / 151015.0 19.4 -0.0
2020-Sep-18 20:00N 40°42' W 124°06'0 0.0 240 / 101015.0 19.9 -0.0
2020-Sep-18 19:00N 40°42' W 124°06'0 0.0 190 / 51015.2 20.3 -0.0
2020-Sep-18 18:00N 40°42' W 124°06'0 0.0 110 / 11015.5 18.3 -0.0
2020-Sep-18 17:00N 40°42' W 124°06'0 0.0 080 / 31015.3 17.2 -0.0
2020-Sep-18 16:00N 40°42' W 124°06'0 0.0 180 / 31015.3 15.9 -0.0
2020-Sep-18 15:00N 40°42' W 124°06'0 0.0 230 / 31015.0 15.5 -0.0
2020-Sep-18 14:00N 40°42' W 124°06'0 0.0 230 / 41014.4 15.5 -0.0
2020-Sep-18 13:00N 40°42' W 124°06'0 0.0 130 / 31013.8 16.1 -0.0
2020-Sep-18 12:00N 40°42' W 124°06'0 0.0 130 / 21013.9 16.1 -0.0
2020-Sep-18 11:00N 40°42' W 124°06'0 0.0 150 / 11014.3 15.3 -0.0
2020-Sep-18 10:00N 40°42' W 124°06'0 0.0 100 / 11014.3 15.7 -0.0
2020-Sep-18 09:00N 40°42' W 124°06'0 0.0 200 / 31014.4 15.8 -0.0
2020-Sep-18 08:00N 40°42' W 124°06'0 0.0 200 / 41014.5 16.7 -0.0
2020-Sep-18 07:00N 40°42' W 124°06'0 0.0 130 / 21014.5 17.6 -0.0
2020-Sep-18 06:00N 40°42' W 124°06'0 0.0 260 / 11014.9 17.7 -0.0
2020-Sep-18 05:00N 40°42' W 124°06'0 0.0 320 / 11015.1 18.3 -0.0
2020-Sep-18 04:00N 40°42' W 124°06'0 0.0 200 / 21015.0 18.5 -0.0
2020-Sep-18 03:00N 40°42' W 124°06'0 0.0 180 / 11014.8 18.6 -0.0
2020-Sep-18 02:00N 40°42' W 124°06'0 0.0 210 / 21014.8 18.8 -0.0
2020-Sep-18 01:00N 40°42' W 124°06'0 0.0 290 / 21014.7 19.4 -0.0
2020-Sep-18 00:00N 40°42' W 124°06'0 0.0 090 / 11014.9 20.2 -0.0
2020-Sep-17 23:00N 40°42' W 124°06'0 0.0 160 / 21015.3 18.9 -0.0
2020-Sep-17 22:00N 40°42' W 124°06'0 0.0 220 / 41015.5 16.9 -0.0
2020-Sep-17 21:00N 40°42' W 124°06'0 0.0 210 / 81015.5 15.5 -0.0
2020-Sep-17 20:00N 40°42' W 124°06'0 0.0 250 / 51015.3 17.2 -0.0
2020-Sep-17 19:00N 40°42' W 124°06'0 0.0 340 / 21015.3 16.5 -0.0
2020-Sep-17 18:00N 40°42' W 124°06'0 0.0 360 / 31015.5 15.8 -0.0
2020-Sep-17 17:00N 40°42' W 124°06'0 0.0 350 / 31015.6 15.7 -0.0
2020-Sep-17 16:00N 40°42' W 124°06'0 0.0 350 / 21015.8 15.6 -0.0
2020-Sep-17 15:00N 40°42' W 124°06'0 0.0 310 / 21015.7 15.7 -0.0
2020-Sep-17 14:00N 40°42' W 124°06'0 0.0 080 / 31015.5 16.0 -0.0
2020-Sep-17 13:00N 40°42' W 124°06'0 0.0 350 / 31015.8 15.5 -0.0
2020-Sep-17 10:00N 40°42' W 124°06'0 0.0 340 / 11016.7 15.6 -0.0
2020-Sep-17 09:00N 40°42' W 124°06'0 0.0 310 / 11016.8 15.9 -0.0
2020-Sep-17 08:00N 40°42' W 124°06'0 0.0 280 / 11016.8 16.1 -0.0
2020-Sep-17 07:00N 40°42' W 124°06'0 0.0 260 / 21016.9 16.1 -0.0
2020-Sep-17 06:00N 40°42' W 124°06'0 0.0 250 / 41017.0 16.4 -0.0
2020-Sep-17 05:00N 40°42' W 124°06'0 0.0 230 / 31017.2 16.7 -0.0
2020-Sep-17 04:00N 40°42' W 124°06'0 0.0 250 / 31017.1 17.2 -0.0
2020-Sep-17 03:00N 40°42' W 124°06'0 0.0 250 / 11017.1 18.2 -0.0
2020-Sep-17 02:00N 40°42' W 124°06'0 0.0 300 / 11017.3 18.4 -0.0
2020-Sep-17 01:00N 40°42' W 124°06'0 0.0 040 / 11017.6 18.4 -0.0
2020-Sep-17 00:00N 40°42' W 124°06'0 0.0 280 / 21017.8 18.4 -0.0
2020-Sep-16 23:00N 40°42' W 124°06'0 0.0 260 / 51017.9 19.5 -0.0
2020-Sep-16 22:00N 40°42' W 124°06'0 0.0 220 / 61017.8 19.4 -0.0
2020-Sep-16 21:00N 40°42' W 124°06'0 0.0 250 / 51018.1 18.6 -0.0
2020-Sep-16 20:00N 40°42' W 124°06'0 0.0 230 / 71018.1 19.0 -0.0
2020-Sep-16 19:00N 40°42' W 124°06'0 0.0 290 / 51018.1 19.7 -0.0
2020-Sep-16 18:00N 40°42' W 124°06'0 0.0 330 / 61018.0 19.0 -0.0
2020-Sep-16 17:00N 40°42' W 124°06'0 0.0 040 / 41017.8 18.4 -0.0
2020-Sep-16 16:00N 40°42' W 124°06'0 0.0 190 / 11017.7 18.0 -0.0
2020-Sep-16 15:00N 40°42' W 124°06'0 0.0 210 / 41017.5 17.2 -0.0
2020-Sep-16 14:00N 40°42' W 124°06'0 0.0 180 / 41017.2 17.4 -0.0
2020-Sep-16 13:00N 40°42' W 124°06'0 0.0 120 / 31017.1 17.7 -0.0
2020-Sep-16 12:00N 40°42' W 124°06'0 0.0 090 / 21017.3 17.4 -0.0
2020-Sep-16 11:00N 40°42' W 124°06'0 0.0 170 / 21017.4 16.9 -0.0
2020-Sep-16 10:00N 40°42' W 124°06'0 0.0 180 / 41017.5 17.2 -0.0
2020-Sep-16 09:00N 40°42' W 124°06'0 0.0 190 / 51017.5 17.4 -0.0
2020-Sep-16 08:00N 40°42' W 124°06'0 0.0 180 / 41017.5 18.4 -0.0
2020-Sep-16 07:00N 40°42' W 124°06'0 0.0 160 / 31017.6 18.3 -0.0
2020-Sep-16 06:00N 40°42' W 124°06'0 0.0 100 / 11017.6 19.0 -0.0
2020-Sep-16 05:00N 40°42' W 124°06'0 0.0 040 / 51017.6 19.9 -0.0
2020-Sep-16 04:00N 40°42' W 124°06'0 0.0 050 / 51017.3 19.8 -0.0
2020-Sep-16 03:00N 40°42' W 124°06'0 0.0 090 / 21017.5 19.5 -0.0
2020-Sep-16 02:00N 40°42' W 124°06'0 0.0 210 / 11017.8 19.1 -0.0
2020-Sep-16 01:00N 40°42' W 124°06'0 0.0 250 / 41017.8 18.9 -0.0
2020-Sep-16 00:00N 40°42' W 124°06'0 0.0 260 / 51017.7 19.7 -0.0
2020-Sep-15 23:00N 40°42' W 124°06'0 0.0 220 / 61017.9 19.8 -0.0
2020-Sep-15 22:00N 40°42' W 124°06'0 0.0 230 / 71018.2 19.7 -0.0
2020-Sep-15 21:00N 40°42' W 124°06'0 0.0 230 / 81018.4 19.4 -0.0
2020-Sep-15 20:00N 40°42' W 124°06'0 0.0 250 / 81018.4 19.3 -0.0
2020-Sep-15 19:00N 40°42' W 124°06'0 0.0 310 / 31018.4 19.3 -0.0
2020-Sep-15 18:00N 40°42' W 124°06'0 0.0 310 / 21018.3 17.9 -0.0
2020-Sep-15 17:00N 40°42' W 124°06'0 0.0 230 / 11018.1 16.4 -0.0
2020-Sep-15 16:00N 40°42' W 124°06'0 0.0 120 / 11018.0 14.7 -0.0
2020-Sep-15 15:00N 40°42' W 124°06'0 0.0 140 / 21018.1 13.4 -0.0
2020-Sep-15 14:00N 40°42' W 124°06'0 0.0 190 / 11017.9 13.2 -0.0
2020-Sep-15 13:00N 40°42' W 124°06'0 0.0 170 / 11017.8 13.7 -0.0
2020-Sep-15 12:00N 40°42' W 124°06'0 0.0 140 / 11017.9 13.7 -0.0
2020-Sep-15 11:00N 40°42' W 124°06'0 0.0 150 / 11018.0 13.9 -0.0
2020-Sep-15 10:00N 40°42' W 124°06'0 0.0 130 / 11018.1 14.3 -0.0
2020-Sep-15 09:00N 40°42' W 124°06'0 0.0 150 / 41017.9 14.7 -0.0
2020-Sep-15 08:00N 40°42' W 124°06'0 0.0 150 / 41017.7 14.9 -0.0
2020-Sep-15 07:00N 40°42' W 124°06'0 0.0 140 / 41017.6 15.3 -0.0
2020-Sep-15 06:00N 40°42' W 124°06'0 0.0 130 / 41017.4 15.8 -0.0
2020-Sep-15 05:00N 40°42' W 124°06'0 0.0 110 / 41017.2 16.1 -0.0
2020-Sep-15 04:00N 40°42' W 124°06'0 0.0 160 / 21016.6 16.9 -0.0
2020-Sep-15 03:00N 40°42' W 124°06'0 0.0 230 / 21016.3 18.1 -0.0
2020-Sep-15 02:00N 40°42' W 124°06'0 0.0 190 / 21016.2 19.2 -0.0
2020-Sep-15 01:00N 40°42' W 124°06'0 0.0 190 / 41016.2 19.5 -0.0
2020-Sep-15 00:00N 40°42' W 124°06'0 0.0 180 / 31016.4 19.6 -0.0
2020-Sep-14 23:00N 40°42' W 124°06'0 0.0 190 / 61016.8 17.6 -0.0
2020-Sep-14 22:00N 40°42' W 124°06'0 0.0 220 / 81017.1 16.6 -0.0
2020-Sep-14 21:00N 40°42' W 124°06'0 0.0 270 / 41016.9 16.5 -0.0
2020-Sep-14 20:00N 40°42' W 124°06'0 0.0 020 / 51016.8 14.7 -0.0
2020-Sep-14 19:00N 40°42' W 124°06'0 0.0 160 / 11016.9 14.8 -0.0
2020-Sep-14 18:00N 40°42' W 124°06'0 0.0 200 / 31016.8 13.4 -0.0
2020-Sep-14 17:00N 40°42' W 124°06'0 0.0 240 / 31016.5 12.8 -0.0
2020-Sep-14 16:00N 40°42' W 124°06'0 0.0 240 / 31016.3 12.5 -0.0
2020-Sep-14 15:00N 40°42' W 124°06'0 0.0 230 / 41016.0 12.2 -0.0
2020-Sep-14 14:00N 40°42' W 124°06'0 0.0 240 / 51015.6 12.2 -0.0
2020-Sep-14 13:00N 40°42' W 124°06'0 0.0 240 / 31015.4 12.4 -0.0
2020-Sep-14 12:00N 40°42' W 124°06'0 0.0 260 / 11015.4 12.6 -0.0
2020-Sep-14 11:00N 40°42' W 124°06'0 0.0 280 / 11015.2 12.5 -0.0
2020-Sep-14 10:00N 40°42' W 124°06'0 0.0 310 / 21015.1 12.6 -0.0
2020-Sep-14 09:00N 40°42' W 124°06'0 0.0 330 / 41015.3 12.6 -0.0
2020-Sep-14 08:00N 40°42' W 124°06'0 0.0 350 / 31015.2 12.9 -0.0
2020-Sep-14 07:00N 40°42' W 124°06'0 0.0 350 / 31015.3 13.3 -0.0
2020-Sep-14 06:00N 40°42' W 124°06'0 0.0 330 / 21015.1 13.4 -0.0
2020-Sep-14 05:00N 40°42' W 124°06'0 0.0 340 / 21015.1 13.3 -0.0
2020-Sep-14 04:00N 40°42' W 124°06'0 0.0 020 / 21014.8 14.1 -0.0
2020-Sep-14 03:00N 40°42' W 124°06'0 0.0 020 / 21014.6 14.0 -0.0
2020-Sep-14 02:00N 40°42' W 124°06'0 0.0 320 / 11014.6 13.9 -0.0
2020-Sep-14 01:00N 40°42' W 124°06'0 0.0 230 / 11014.7 13.9 -0.0
2020-Sep-14 00:00N 40°42' W 124°06'0 0.0 300 / 31014.7 14.1 -0.0
2020-Sep-13 23:00N 40°42' W 124°06'0 0.0 300 / 51014.5 14.3 -0.0
2020-Sep-13 22:00N 40°42' W 124°06'0 0.0 280 / 41014.4 14.3 -0.0
2020-Sep-13 21:00N 40°42' W 124°06'0 0.0 230 / 31015.0 13.6 -0.0
2020-Sep-13 20:00N 40°42' W 124°06'0 0.0 150 / 21014.8 13.1 -0.0
2020-Sep-13 19:00N 40°42' W 124°06'0 0.0 130 / 21015.0 12.2 -0.0
2020-Sep-13 18:00N 40°42' W 124°06'0 0.0 200 / 31014.8 11.4 -0.0
2020-Sep-13 17:00N 40°42' W 124°06'0 0.0 210 / 21014.0 11.2 -0.0
2020-Sep-13 16:00N 40°42' W 124°06'0 0.0 130 / 21013.9 11.0 -0.0
2020-Sep-13 15:00N 40°42' W 124°06'0 0.0 140 / 31014.0 10.5 -0.0
2020-Sep-13 14:00N 40°42' W 124°06'0 0.0 150 / 31013.6 10.3 -0.0
2020-Sep-13 13:00N 40°42' W 124°06'0 0.0 170 / 31013.4 10.3 -0.0
2020-Sep-13 12:00N 40°42' W 124°06'0 0.0 260 / 21013.3 10.3 -0.0
2020-Sep-13 11:00N 40°42' W 124°06'0 0.0 230 / 11013.4 10.5 -0.0
2020-Sep-13 10:00N 40°42' W 124°06'0 0.0 130 / 11013.4 10.6 -0.0
2020-Sep-13 09:00N 40°42' W 124°06'0 0.0 1013.8 10.5 -0.0
2020-Sep-13 08:00N 40°42' W 124°06'0 0.0 120 / 21013.7 10.5 -0.0
2020-Sep-13 07:00N 40°42' W 124°06'0 0.0 210 / 21013.8 10.4 -0.0
2020-Sep-13 06:00N 40°42' W 124°06'0 0.0 250 / 21013.9 10.5 -0.0
2020-Sep-13 05:00N 40°42' W 124°06'0 0.0 330 / 21014.3 10.6 -0.0
2020-Sep-13 04:00N 40°42' W 124°06'0 0.0 1014.2 10.9 -0.0
2020-Sep-13 03:00N 40°42' W 124°06'0 0.0 030 / 41014.0 11.2 -0.0
2020-Sep-13 02:00N 40°42' W 124°06'0 0.0 020 / 51014.3 11.4 -0.0
2020-Sep-13 01:00N 40°42' W 124°06'0 0.0 1014.6 11.4 -0.0
2020-Sep-13 00:00N 40°42' W 124°06'0 0.0 010 / 51014.9 11.4 -0.0
2020-Sep-12 23:00N 40°42' W 124°06'0 0.0 020 / 51015.0 11.4 -0.0
2020-Sep-12 22:00N 40°42' W 124°06'0 0.0 350 / 51015.3 11.3 -0.0
2020-Sep-12 21:00N 40°42' W 124°06'0 0.0 350 / 41015.4 11.4 -0.0
2020-Sep-12 20:00N 40°42' W 124°06'0 0.0 020 / 31015.7 11.4 -0.0
2020-Sep-12 19:00N 40°42' W 124°06'0 0.0 010 / 41016.1 11.1 -0.0
2020-Sep-12 18:00N 40°42' W 124°06'0 0.0 340 / 41016.4 11.0 -0.0
2020-Sep-12 17:00N 40°42' W 124°06'0 0.0 360 / 31016.6 11.0 -0.0
2020-Sep-12 16:00N 40°42' W 124°06'0 0.0 310 / 21016.5 10.8 -0.0
2020-Sep-12 15:00N 40°42' W 124°06'0 0.0 180 / 11016.4 10.7 -0.0
2020-Sep-12 14:00N 40°42' W 124°06'0 0.0 300 / 21016.3 10.6 -0.0
2020-Sep-12 13:00N 40°42' W 124°06'0 0.0 320 / 31016.2 10.6 -0.0
2020-Sep-12 12:00N 40°42' W 124°06'0 0.0 340 / 21016.2 11.4 -0.0
2020-Sep-12 11:00N 40°42' W 124°06'0 0.0 050 / 21016.5 11.6 -0.0
2020-Sep-12 10:00N 40°42' W 124°06'0 0.0 120 / 21016.7 11.1 -0.0
2020-Sep-12 09:00N 40°42' W 124°06'0 0.0 240 / 31016.6 10.7 -0.0
2020-Sep-12 08:00N 40°42' W 124°06'0 0.0 290 / 21016.6 11.3 -0.0
2020-Sep-12 07:00N 40°42' W 124°06'0 0.0 350 / 21016.9 11.7 -0.0
2020-Sep-12 06:00N 40°42' W 124°06'0 0.0 020 / 21017.0 12.1 -0.0
2020-Sep-12 05:00N 40°42' W 124°06'0 0.0 030 / 31017.4 12.0 -0.0
2020-Sep-12 04:00N 40°42' W 124°06'0 0.0 030 / 31017.3 11.8 -0.0
2020-Sep-12 03:00N 40°42' W 124°06'0 0.0 320 / 21017.1 12.0 -0.0
2020-Sep-12 02:00N 40°42' W 124°06'0 0.0 250 / 21017.1 13.1 -0.0
2020-Sep-12 01:00N 40°42' W 124°06'0 0.0 270 / 21017.3 14.6 -0.0
2020-Sep-12 00:00N 40°42' W 124°06'0 0.0 290 / 31017.6 14.7 -0.0
2020-Sep-11 23:00N 40°42' W 124°06'0 0.0 290 / 21017.7 16.0 -0.0
2020-Sep-11 22:00N 40°42' W 124°06'0 0.0 290 / 31017.9 16.2 -0.0
2020-Sep-11 21:00N 40°42' W 124°06'0 0.0 310 / 31018.0 16.6 -0.0
2020-Sep-11 20:00N 40°42' W 124°06'0 0.0 340 / 31018.3 17.0 -0.0
2020-Sep-11 19:00N 40°42' W 124°06'0 0.0 360 / 21018.6 17.0 -0.0
2020-Sep-11 18:00N 40°42' W 124°06'0 0.0 060 / 11018.7 15.6 -0.0
2020-Sep-11 17:00N 40°42' W 124°06'0 0.0 140 / 21018.7 13.7 -0.0
2020-Sep-11 16:00N 40°42' W 124°06'0 0.0 160 / 31018.7 11.9 -0.0
2020-Sep-11 15:00N 40°42' W 124°06'0 0.0 160 / 21018.6 11.6 -0.0
2020-Sep-11 14:00N 40°42' W 124°06'0 0.0 140 / 11018.3 12.0 -0.0
2020-Sep-11 13:00N 40°42' W 124°06'0 0.0 130 / 11018.0 12.3 -0.0
2020-Sep-11 12:00N 40°42' W 124°06'0 0.0 120 / 11017.9 12.5 -0.0
2020-Sep-11 11:00N 40°42' W 124°06'0 0.0 100 / 11018.1 12.9 -0.0
2020-Sep-11 10:00N 40°42' W 124°06'0 0.0 020 / 11018.1 13.1 -0.0
2020-Sep-11 09:00N 40°42' W 124°06'0 0.0 160 / 11017.9 13.3 -0.0
2020-Sep-11 08:00N 40°42' W 124°06'0 0.0 130 / 21017.7 13.2 -0.0
2020-Sep-11 07:00N 40°42' W 124°06'0 0.0 190 / 21017.6 13.4 -0.0
2020-Sep-11 06:00N 40°42' W 124°06'0 0.0 160 / 21017.5 13.8 -0.0
2020-Sep-11 05:00N 40°42' W 124°06'0 0.0 170 / 31017.5 14.2 -0.0
2020-Sep-11 04:00N 40°42' W 124°06'0 0.0 170 / 21017.3 14.8 -0.0
2020-Sep-11 03:00N 40°42' W 124°06'0 0.0 060 / 21016.9 15.3 -0.0
2020-Sep-11 02:00N 40°42' W 124°06'0 0.0 1016.6 15.5 -0.0
2020-Sep-11 01:00N 40°42' W 124°06'0 0.0 020 / 41016.4 16.3 -0.0
2020-Sep-11 00:00N 40°42' W 124°06'0 0.0 040 / 61016.6 15.7 -0.0
2020-Sep-10 23:00N 40°42' W 124°06'0 0.0 030 / 51016.8 15.2 -0.0
2020-Sep-10 22:00N 40°42' W 124°06'0 0.0 020 / 51016.9 14.9 -0.0
2020-Sep-10 21:00N 40°42' W 124°06'0 0.0 030 / 51016.9 14.4 -0.0
2020-Sep-10 20:00N 40°42' W 124°06'0 0.0 030 / 31017.0 13.2 -0.0
2020-Sep-10 19:00N 40°42' W 124°06'0 0.0 060 / 11017.0 12.5 -0.0
2020-Sep-10 18:00N 40°42' W 124°06'0 0.0 080 / 31016.9 12.0 -0.0
2020-Sep-10 17:00N 40°42' W 124°06'0 0.0 080 / 41016.6 12.1 -0.0
2020-Sep-10 16:00N 40°42' W 124°06'0 0.0 010 / 41016.1 11.7 -0.0
2020-Sep-10 15:00N 40°42' W 124°06'0 0.0 350 / 31015.7 11.5 -0.0
2020-Sep-10 14:00N 40°42' W 124°06'0 0.0 350 / 41015.0 11.5 -0.0
2020-Sep-10 13:00N 40°42' W 124°06'0 0.0 350 / 41014.3 11.5 -0.0
2020-Sep-10 12:00N 40°42' W 124°06'0 0.0 1013.9 11.6 -0.0
2020-Sep-10 11:00N 40°42' W 124°06'0 0.0 350 / 31013.7 11.6 -0.0
2020-Sep-10 10:00N 40°42' W 124°06'0 0.0 350 / 31013.4 11.7 -0.0
2020-Sep-10 09:00N 40°42' W 124°06'0 0.0 310 / 21013.2 11.8 -0.0
2020-Sep-10 08:00N 40°42' W 124°06'0 0.0 270 / 21012.9 11.9 -0.0
2020-Sep-10 07:00N 40°42' W 124°06'0 0.0 290 / 21012.6 11.9 -0.0
2020-Sep-10 06:00N 40°42' W 124°06'0 0.0 330 / 21012.5 12.1 -0.0
2020-Sep-10 05:00N 40°42' W 124°06'0 0.0 340 / 41012.2 12.1 -0.0
2020-Sep-10 04:00N 40°42' W 124°06'0 0.0 320 / 41011.6 12.2 -0.0
2020-Sep-10 03:00N 40°42' W 124°06'0 0.0 330 / 41010.8 12.2 -0.0
2020-Sep-10 02:00N 40°42' W 124°06'0 0.0 350 / 41010.5 12.3 -0.0
2020-Sep-10 01:00N 40°42' W 124°06'0 0.0 030 / 71010.1 13.0 -0.0
2020-Sep-10 00:00N 40°42' W 124°06'   040 / 91009.9 13.6 -0.0

Dump ship's entire track history